Time;durP1;ratioP1;P1;durP2;ratioP2;P2;SDS_P1;SDS_P2;PMS_P1;PMS_P2;Temp;Humidity;BMP_temperature;BMP_pressure;BME280_temperature;BME280_humidity;BME280_pressure;Samples;Min_cycle;Max_cycle;Signal;HPM_P1;HPM_P2
2022/07/15 00:02:23;;;;;;;0.10;0.10;;;12.50;99.90;;;;;;5004106;28;20495;-80
2022/07/15 00:04:48;;;;;;;0.10;0.10;;;12.50;99.90;;;;;;4997395;28;20181;-80
2022/07/15 00:07:14;;;;;;;0.10;0.10;;;12.40;99.90;;;;;;5003970;28;20221;-81
2022/07/15 00:12:24;;;;;;;0.20;0.20;;;12.40;99.90;;;;;;4998175;28;20928;-80
2022/07/15 00:14:49;;;;;;;0.20;0.20;;;12.40;99.90;;;;;;5005955;28;20447;-80
2022/07/15 00:17:15;;;;;;;0.10;0.10;;;12.40;99.90;;;;;;4984073;28;20247;-80
2022/07/15 00:19:40;;;;;;;0.10;0.10;;;12.30;99.90;;;;;;4993123;28;20267;-81
2022/07/15 00:22:06;;;;;;;0.10;0.10;;;12.30;99.90;;;;;;4992376;28;20220;-80
2022/07/15 00:24:32;;;;;;;0.20;0.20;;;12.30;99.90;;;;;;5006151;28;20688;-80
2022/07/15 00:26:57;;;;;;;0.10;0.10;;;12.30;99.90;;;;;;5004006;28;20585;-81
2022/07/15 00:29:23;;;;;;;0.20;0.20;;;12.40;99.90;;;;;;5004143;28;20271;-81
2022/07/15 00:31:48;;;;;;;0.10;0.10;;;12.30;99.90;;;;;;4992755;28;20200;-80
2022/07/15 00:34:14;;;;;;;0.20;0.20;;;12.30;99.90;;;;;;4998358;28;20654;-80
2022/07/15 00:36:39;;;;;;;0.20;0.20;;;12.30;99.90;;;;;;4981548;28;20192;-81
2022/07/15 00:39:06;;;;;;;0.20;0.20;;;12.30;99.90;;;;;;5008614;28;20192;-80
2022/07/15 00:41:38;;;;;;;0.20;0.20;;;12.40;99.90;;;;;;4996680;28;20193;-80
2022/07/15 00:44:04;;;;;;;0.10;0.10;;;12.40;99.90;;;;;;4981022;28;20454;-81
2022/07/15 00:46:30;;;;;;;0.20;0.20;;;12.40;99.90;;;;;;5009889;28;20462;-80
2022/07/15 00:48:57;;;;;;;0.10;0.10;;;12.50;99.90;;;;;;4996517;28;20188;-80
2022/07/15 00:51:23;;;;;;;0.20;0.20;;;12.50;99.90;;;;;;4987888;28;21521;-80
2022/07/15 00:53:49;;;;;;;0.20;0.20;;;12.50;99.90;;;;;;5014905;28;21229;-80
2022/07/15 00:56:17;;;;;;;0.10;0.10;;;12.70;99.90;;;;;;5002432;28;20181;-80
2022/07/15 00:58:44;;;;;;;0.20;0.20;;;12.70;99.90;;;;;;5000328;28;20454;-81
2022/07/15 01:01:10;;;;;;;0.20;0.20;;;12.70;99.90;;;;;;5002419;28;20444;-80
2022/07/15 01:03:36;;;;;;;0.10;0.10;;;12.80;99.90;;;;;;4989969;28;20438;-80
2022/07/15 01:06:02;;;;;;;0.20;0.20;;;12.70;99.90;;;;;;5004539;28;20443;-79
2022/07/15 01:08:28;;;;;;;0.20;0.20;;;12.80;99.90;;;;;;4999442;28;20220;-80
2022/07/15 01:10:54;;;;;;;0.10;0.10;;;12.80;99.90;;;;;;5021813;28;20442;-79
2022/07/15 01:13:20;;;;;;;0.20;0.20;;;12.80;99.90;;;;;;5013361;28;20599;-80
2022/07/15 01:15:47;;;;;;;0.10;0.10;;;12.70;99.90;;;;;;5000209;28;20761;-80
2022/07/15 01:18:12;;;;;;;0.10;0.10;;;12.90;99.90;;;;;;5003429;28;20444;-81
2022/07/15 01:20:40;;;;;;;0.20;0.20;;;12.80;99.90;;;;;;5013343;28;20443;-81
2022/07/15 01:23:05;;;;;;;0.10;0.10;;;12.90;99.90;;;;;;4997036;28;20188;-80
2022/07/15 01:25:32;;;;;;;0.10;0.10;;;12.80;99.90;;;;;;5008880;28;20502;-81
2022/07/15 01:27:58;;;;;;;0.10;0.10;;;12.90;99.90;;;;;;5004581;28;20226;-80
2022/07/15 01:30:24;;;;;;;0.10;0.10;;;12.90;99.90;;;;;;4992643;28;20458;-80
2022/07/15 01:32:51;;;;;;;0.10;0.10;;;12.90;99.90;;;;;;4993730;28;21238;-80
2022/07/15 01:35:17;;;;;;;0.10;0.10;;;12.90;99.90;;;;;;4987961;28;20203;-80
2022/07/15 01:37:43;;;;;;;0.10;0.10;;;12.90;99.90;;;;;;4992774;28;20438;-80
2022/07/15 01:40:09;;;;;;;0.10;0.10;;;12.90;99.90;;;;;;5010918;28;20314;-80
2022/07/15 01:42:35;;;;;;;0.10;0.10;;;12.90;99.90;;;;;;5012196;28;20454;-81
2022/07/15 01:45:00;;;;;;;0.10;0.10;;;13.00;99.90;;;;;;5002735;28;20463;-81
2022/07/15 01:47:26;;;;;;;0.10;0.10;;;12.90;99.90;;;;;;4993209;28;20216;-80
2022/07/15 01:49:52;;;;;;;0.20;0.20;;;12.90;99.90;;;;;;5003832;28;20185;-80
2022/07/15 01:52:17;;;;;;;0.13;0.13;;;12.90;99.90;;;;;;5002959;28;20222;-80
2022/07/15 01:54:43;;;;;;;0.10;0.10;;;12.90;99.90;;;;;;4997884;28;20193;-81
2022/07/15 01:57:08;;;;;;;0.10;0.10;;;12.80;99.90;;;;;;5007867;28;20290;-81
2022/07/15 01:59:34;;;;;;;0.10;0.10;;;12.80;99.90;;;;;;4983075;28;20557;-80
2022/07/15 02:02:00;;;;;;;0.10;0.10;;;12.80;99.90;;;;;;5004075;28;20743;-80
2022/07/15 02:04:25;;;;;;;0.10;0.10;;;12.90;99.90;;;;;;5005331;28;20203;-81
2022/07/15 02:06:51;;;;;;;0.10;0.10;;;12.90;99.90;;;;;;4999581;28;20212;-81
2022/07/15 02:09:17;;;;;;;0.20;0.20;;;12.90;99.90;;;;;;5004835;28;20192;-80
2022/07/15 02:11:43;;;;;;;0.10;0.10;;;13.00;99.90;;;;;;4998039;28;20185;-80
2022/07/15 02:14:09;;;;;;;0.10;0.10;;;12.90;99.90;;;;;;4992021;28;20193;-81
2022/07/15 02:16:35;;;;;;;0.10;0.10;;;12.90;99.90;;;;;;4996455;28;20454;-80
2022/07/15 02:19:01;;;;;;;0.10;0.10;;;12.80;99.90;;;;;;4991494;28;20180;-81
2022/07/15 02:21:27;;;;;;;0.10;0.10;;;12.80;99.90;;;;;;4987755;28;20195;-80
2022/07/15 02:23:57;;;;;;;0.10;0.10;;;12.80;99.90;;;;;;5004932;28;20517;-81
2022/07/15 02:26:23;;;;;;;0.10;0.10;;;12.90;99.90;;;;;;4991309;28;20236;-80
2022/07/15 02:28:49;;;;;;;0.10;0.10;;;12.90;99.90;;;;;;5006495;28;20455;-81
2022/07/15 02:31:15;;;;;;;0.10;0.10;;;13.00;99.90;;;;;;4996323;28;20513;-81
2022/07/15 02:33:41;;;;;;;0.10;0.10;;;12.90;99.90;;;;;;5003707;28;20199;-80
2022/07/15 02:36:08;;;;;;;0.10;0.10;;;12.90;99.90;;;;;;5000064;28;20431;-81
2022/07/15 02:38:33;;;;;;;0.10;0.10;;;12.90;99.90;;;;;;4997086;28;20453;-81
2022/07/15 02:40:59;;;;;;;0.10;0.10;;;12.90;99.90;;;;;;4999922;28;20522;-79
2022/07/15 02:43:24;;;;;;;0.10;0.10;;;12.80;99.90;;;;;;4988853;28;20185;-80
2022/07/15 02:45:50;;;;;;;0.10;0.10;;;12.90;99.90;;;;;;4993118;28;20195;-80
2022/07/15 02:48:15;;;;;;;0.20;0.20;;;12.90;99.90;;;;;;5002877;28;20219;-82
2022/07/15 02:50:41;;;;;;;0.10;0.10;;;13.00;99.90;;;;;;5005575;28;20191;-80
2022/07/15 02:53:08;;;;;;;0.20;0.20;;;12.90;99.90;;;;;;5006502;28;20292;-81
2022/07/15 02:55:33;;;;;;;0.10;0.10;;;12.90;99.90;;;;;;4992562;28;20219;-80
2022/07/15 02:57:59;;;;;;;0.20;0.20;;;12.80;99.90;;;;;;4991146;28;20563;-81
2022/07/15 03:00:25;;;;;;;0.10;0.10;;;12.80;99.90;;;;;;4994858;28;20644;-81
2022/07/15 03:02:51;;;;;;;0.10;0.10;;;12.80;99.90;;;;;;5000167;28;20439;-82
2022/07/15 03:05:17;;;;;;;0.10;0.10;;;12.80;99.90;;;;;;5005025;28;20436;-81
2022/07/15 03:07:44;;;;;;;0.10;0.10;;;12.70;99.90;;;;;;5000488;28;20220;-80
2022/07/15 03:10:10;;;;;;;0.10;0.10;;;12.80;99.90;;;;;;4999591;28;20530;-81
2022/07/15 03:12:36;;;;;;;0.10;0.10;;;12.80;99.90;;;;;;4990804;28;20979;-81
2022/07/15 03:15:03;;;;;;;0.10;0.10;;;12.80;99.90;;;;;;5005600;28;20447;-81
2022/07/15 03:17:28;;;;;;;0.20;0.20;;;12.80;99.90;;;;;;5002222;28;20525;-80
2022/07/15 03:19:57;;;;;;;0.10;0.10;;;12.80;99.90;;;;;;5005808;28;20443;-81
2022/07/15 03:22:27;;;;;;;0.10;0.10;;;12.80;99.90;;;;;;5001152;28;20199;-81
2022/07/15 03:24:53;;;;;;;0.10;0.10;;;12.80;99.90;;;;;;4996746;28;20455;-80
2022/07/15 03:27:19;;;;;;;0.20;0.20;;;12.80;99.90;;;;;;5008369;28;20888;-80
2022/07/15 03:29:44;;;;;;;0.10;0.10;;;12.80;99.90;;;;;;5003133;28;20490;-80
2022/07/15 03:32:11;;;;;;;0.10;0.10;;;12.80;99.90;;;;;;5002215;28;20203;-80
2022/07/15 03:34:37;;;;;;;0.10;0.10;;;12.80;99.90;;;;;;4998208;28;20228;-80
2022/07/15 03:37:03;;;;;;;0.10;0.10;;;12.80;99.90;;;;;;5002678;28;20474;-81
2022/07/15 03:39:29;;;;;;;0.10;0.10;;;12.80;99.90;;;;;;5003740;28;20451;-80
2022/07/15 03:41:54;;;;;;;0.10;0.10;;;12.80;99.90;;;;;;5002080;28;20192;-81
2022/07/15 03:44:20;;;;;;;0.10;0.10;;;12.80;99.90;;;;;;5001981;28;20291;-80
2022/07/15 03:46:46;;;;;;;0.20;0.20;;;12.90;99.90;;;;;;5004001;28;20239;-81
2022/07/15 03:49:13;;;;;;;0.10;0.10;;;12.80;99.90;;;;;;5010911;28;20200;-81
2022/07/15 03:51:38;;;;;;;0.10;0.10;;;13.00;99.90;;;;;;5004285;28;20308;-82
2022/07/15 03:54:04;;;;;;;0.10;0.10;;;13.00;99.90;;;;;;5003402;28;20443;-81
2022/07/15 03:56:31;;;;;;;0.10;0.10;;;13.00;99.90;;;;;;5005877;28;20223;-81
2022/07/15 03:58:57;;;;;;;0.10;0.10;;;13.00;99.90;;;;;;4991291;28;20476;-80
2022/07/15 04:01:23;;;;;;;0.17;0.17;;;13.00;99.90;;;;;;4990733;28;20439;-80
2022/07/15 04:03:50;;;;;;;0.10;0.10;;;13.00;99.90;;;;;;5005368;28;20971;-80
2022/07/15 04:06:17;;;;;;;0.20;0.20;;;13.00;99.90;;;;;;4994017;28;20440;-82
2022/07/15 04:08:43;;;;;;;0.10;0.10;;;13.00;99.90;;;;;;4994742;28;20550;-81
2022/07/15 04:11:10;;;;;;;0.10;0.10;;;13.10;99.90;;;;;;5022187;28;20449;-79
2022/07/15 04:13:35;;;;;;;0.20;0.20;;;13.10;99.90;;;;;;4996492;28;20891;-79
2022/07/15 04:16:01;;;;;;;0.10;0.10;;;13.00;99.90;;;;;;5006642;28;20448;-79
2022/07/15 04:18:27;;;;;;;0.10;0.10;;;13.00;99.90;;;;;;4977997;28;20193;-79
2022/07/15 04:20:52;;;;;;;0.10;0.10;;;13.10;99.90;;;;;;4999633;28;20230;-81
2022/07/15 04:23:18;;;;;;;0.10;0.10;;;13.20;99.90;;;;;;4992412;28;20201;-80
2022/07/15 04:25:44;;;;;;;0.10;0.10;;;13.20;99.90;;;;;;5000236;28;20188;-79
2022/07/15 04:28:09;;;;;;;0.10;0.10;;;13.30;99.90;;;;;;4979534;28;20359;-80
2022/07/15 04:30:35;;;;;;;0.10;0.10;;;13.20;99.90;;;;;;4988439;28;20478;-80
2022/07/15 04:33:01;;;;;;;0.10;0.10;;;13.30;99.90;;;;;;4995479;28;20193;-79
2022/07/15 04:35:26;;;;;;;0.10;0.10;;;13.30;99.90;;;;;;5004281;28;20201;-79
2022/07/15 04:37:52;;;;;;;0.10;0.10;;;13.50;99.90;;;;;;5001870;28;20197;-80
2022/07/15 04:40:18;;;;;;;0.10;0.10;;;13.50;99.90;;;;;;5005796;28;20451;-79
2022/07/15 04:42:44;;;;;;;0.10;0.10;;;13.50;99.90;;;;;;5005634;28;20670;-80
2022/07/15 04:45:09;;;;;;;0.10;0.10;;;13.60;99.90;;;;;;4991931;28;20436;-79
2022/07/15 04:47:35;;;;;;;0.10;0.10;;;13.60;99.90;;;;;;5020430;28;20251;-79
2022/07/15 04:52:46;;;;;;;0.10;0.10;;;13.60;99.90;;;;;;5013466;28;20253;-79
2022/07/15 04:55:13;;;;;;;0.10;0.10;;;13.70;99.90;;;;;;5014228;28;20448;-79
2022/07/15 04:57:38;;;;;;;0.10;0.10;;;13.70;99.90;;;;;;4987153;28;21073;-80
2022/07/15 05:00:05;;;;;;;0.10;0.10;;;13.80;99.90;;;;;;5023148;28;20438;-80
2022/07/15 05:02:31;;;;;;;0.10;0.10;;;13.80;99.90;;;;;;5024120;28;20296;-80
2022/07/15 05:04:56;;;;;;;0.10;0.10;;;13.80;99.90;;;;;;5006276;28;21437;-80
2022/07/15 05:07:22;;;;;;;0.10;0.10;;;13.90;99.90;;;;;;5024606;28;20238;-79
2022/07/15 05:09:48;;;;;;;0.10;0.10;;;13.90;99.90;;;;;;5007925;28;20188;-79
2022/07/15 05:12:13;;;;;;;0.10;0.10;;;14.00;99.90;;;;;;5005985;28;20238;-79
2022/07/15 05:14:40;;;;;;;0.10;0.10;;;14.00;99.90;;;;;;5027035;28;20190;-81
2022/07/15 05:17:06;;;;;;;0.10;0.10;;;14.10;99.90;;;;;;5023307;28;20183;-80
2022/07/15 05:19:32;;;;;;;0.10;0.10;;;14.00;99.90;;;;;;5021594;28;20482;-80
2022/07/15 05:21:58;;;;;;;0.10;0.10;;;14.00;99.90;;;;;;5028975;28;20512;-79
2022/07/15 05:24:23;;;;;;;0.10;0.10;;;14.00;99.90;;;;;;5013743;28;20202;-80
2022/07/15 05:26:49;;;;;;;0.10;0.10;;;14.00;99.90;;;;;;5025378;28;20597;-80
2022/07/15 05:29:14;;;;;;;0.10;0.10;;;14.10;99.90;;;;;;5027187;28;20266;-80
2022/07/15 05:31:40;;;;;;;0.10;0.10;;;14.30;99.90;;;;;;5028708;28;20199;-81
2022/07/15 05:34:06;;;;;;;0.10;0.10;;;14.10;99.90;;;;;;5022395;28;20271;-80
2022/07/15 05:36:32;;;;;;;0.10;0.10;;;14.20;99.90;;;;;;5024486;28;20200;-79
2022/07/15 05:38:58;;;;;;;0.10;0.10;;;14.20;99.90;;;;;;5024847;28;20451;-80
2022/07/15 05:41:23;;;;;;;0.10;0.10;;;14.30;99.90;;;;;;5021148;28;20203;-80
2022/07/15 05:43:49;;;;;;;0.10;0.10;;;14.40;99.90;;;;;;5028813;28;20187;-80
2022/07/15 05:46:14;;;;;;;0.10;0.10;;;14.50;99.90;;;;;;5030735;28;20180;-80
2022/07/15 05:48:41;;;;;;;0.10;0.10;;;14.60;99.90;;;;;;5020961;28;20298;-81
2022/07/15 05:51:07;;;;;;;0.10;0.10;;;14.50;99.90;;;;;;5023617;28;20192;-80
2022/07/15 05:53:32;;;;;;;0.10;0.10;;;14.50;99.90;;;;;;5008201;28;20446;-79
2022/07/15 05:55:59;;;;;;;0.10;0.10;;;14.60;99.90;;;;;;5009921;28;20806;-81
2022/07/15 05:58:25;;;;;;;0.10;0.10;;;14.50;99.90;;;;;;5028398;28;20667;-80
2022/07/15 06:00:51;;;;;;;0.10;0.10;;;14.50;99.90;;;;;;5008137;28;20466;-80
2022/07/15 06:03:17;;;;;;;0.10;0.10;;;14.60;99.90;;;;;;5009763;28;20447;-79
2022/07/15 06:05:43;;;;;;;0.10;0.10;;;14.70;99.90;;;;;;5010444;28;20489;-79
2022/07/15 06:08:08;;;;;;;0.10;0.10;;;14.70;99.90;;;;;;5008543;28;20315;-79
2022/07/15 06:10:34;;;;;;;0.10;0.10;;;14.80;99.90;;;;;;5004177;28;20189;-79
2022/07/15 06:13:00;;;;;;;0.10;0.10;;;14.70;99.90;;;;;;4999245;28;20188;-79
2022/07/15 06:15:25;;;;;;;0.10;0.10;;;14.80;99.90;;;;;;4999478;28;20439;-78
2022/07/15 06:17:53;;;;;;;0.10;0.10;;;15.20;99.90;;;;;;5009220;28;20188;-79
2022/07/15 06:20:19;;;;;;;0.10;0.10;;;15.40;99.90;;;;;;4993232;28;20192;-79
2022/07/15 06:22:45;;;;;;;0.10;0.10;;;15.50;99.90;;;;;;5009803;28;20443;-81
2022/07/15 06:25:11;;;;;;;0.10;0.10;;;15.50;99.90;;;;;;4995154;28;20200;-79
2022/07/15 06:27:37;;;;;;;0.10;0.10;;;15.40;99.90;;;;;;4976999;28;20859;-79
2022/07/15 06:30:03;;;;;;;0.10;0.10;;;15.40;99.90;;;;;;4995800;28;20234;-79
2022/07/15 06:32:29;;;;;;;0.10;0.10;;;15.30;99.90;;;;;;5003440;28;20547;-78
2022/07/15 06:34:55;;;;;;;0.10;0.10;;;15.10;99.90;;;;;;5004989;28;20451;-78
2022/07/15 06:37:21;;;;;;;0.10;0.10;;;15.20;99.90;;;;;;5001746;28;20227;-78
2022/07/15 06:39:46;;;;;;;0.10;0.10;;;15.50;99.90;;;;;;5012089;28;20196;-79
2022/07/15 06:42:12;;;;;;;0.10;0.10;;;15.80;99.90;;;;;;5010720;28;20575;-82
2022/07/15 06:44:37;;;;;;;0.10;0.10;;;16.00;99.90;;;;;;5006855;28;20200;-80
2022/07/15 06:47:06;;;;;;;0.10;0.10;;;15.70;99.90;;;;;;5010569;28;20208;-77
2022/07/15 06:49:34;;;;;;;0.10;0.10;;;15.60;99.90;;;;;;4988350;28;20279;-79
2022/07/15 06:52:01;;;;;;;0.10;0.10;;;15.70;99.90;;;;;;5008220;28;20506;-79
2022/07/15 06:54:26;;;;;;;0.10;0.10;;;15.80;99.90;;;;;;5003013;28;20439;-81
2022/07/15 06:56:52;;;;;;;0.10;0.10;;;15.70;99.90;;;;;;5007395;28;21048;-79
2022/07/15 06:59:18;;;;;;;0.10;0.10;;;15.60;99.90;;;;;;4991859;28;20192;-78
2022/07/15 07:01:44;;;;;;;0.10;0.10;;;15.50;99.90;;;;;;4999360;28;20275;-78
2022/07/15 07:04:09;;;;;;;0.10;0.10;;;15.40;99.90;;;;;;5007935;28;20458;-78
2022/07/15 07:06:35;;;;;;;0.10;0.10;;;15.20;99.90;;;;;;5011560;28;20185;-79
2022/07/15 07:09:00;;;;;;;0.10;0.10;;;15.20;99.90;;;;;;5003173;28;20283;-79
2022/07/15 07:11:26;;;;;;;0.10;0.10;;;15.10;99.90;;;;;;4991449;28;20196;-79
2022/07/15 07:13:52;;;;;;;0.10;0.10;;;15.20;99.90;;;;;;5009512;28;20222;-79
2022/07/15 07:16:18;;;;;;;0.10;0.10;;;15.30;99.90;;;;;;5005663;28;20686;-81
2022/07/15 07:18:45;;;;;;;0.10;0.10;;;15.50;99.90;;;;;;4986904;28;20565;-81
2022/07/15 07:21:12;;;;;;;0.10;0.10;;;15.70;99.90;;;;;;5005600;28;20442;-78
2022/07/15 07:23:39;;;;;;;0.10;0.10;;;15.70;99.90;;;;;;5007377;28;20435;-79
2022/07/15 07:26:08;;;;;;;0.10;0.10;;;16.00;99.90;;;;;;5001791;28;20514;-81
2022/07/15 07:28:34;;;;;;;0.10;0.10;;;16.20;99.90;;;;;;5010581;28;20544;-81
2022/07/15 07:31:00;;;;;;;0.10;0.10;;;16.30;99.90;;;;;;4991710;28;20803;-81
2022/07/15 07:33:25;;;;;;;0.10;0.10;;;16.50;99.90;;;;;;5006379;28;20191;-81
2022/07/15 07:35:52;;;;;;;0.10;0.10;;;16.30;99.90;;;;;;5016214;28;20309;-82
2022/07/15 07:38:19;;;;;;;0.10;0.10;;;16.70;99.90;;;;;;5021887;28;20271;-81
2022/07/15 07:40:47;;;;;;;0.10;0.10;;;16.80;99.90;;;;;;5029441;28;20977;-80
2022/07/15 07:43:14;;;;;;;0.10;0.10;;;16.80;99.90;;;;;;4986183;28;21239;-81
2022/07/15 07:45:40;;;;;;;0.10;0.10;;;17.10;99.90;;;;;;4989697;28;20530;-81
2022/07/15 07:48:06;;;;;;;0.10;0.10;;;17.30;99.90;;;;;;4991413;28;20577;-81
2022/07/15 07:50:32;;;;;;;0.10;0.10;;;17.30;99.90;;;;;;5010034;28;20180;-82
2022/07/15 07:52:57;;;;;;;0.10;0.10;;;16.80;99.90;;;;;;5005041;28;20458;-81
2022/07/15 07:55:23;;;;;;;0.10;0.10;;;17.00;99.90;;;;;;5010206;28;20804;-80
2022/07/15 07:57:50;;;;;;;0.10;0.10;;;17.10;99.90;;;;;;5017110;28;20227;-80
2022/07/15 08:00:16;;;;;;;0.10;0.10;;;17.00;99.90;;;;;;5028779;28;20271;-80
2022/07/15 08:02:41;;;;;;;0.10;0.10;;;17.10;99.90;;;;;;5024905;28;20450;-80
2022/07/15 08:05:08;;;;;;;0.10;0.10;;;17.20;99.90;;;;;;5025650;28;20442;-79
2022/07/15 08:07:35;;;;;;;0.10;0.10;;;17.40;99.90;;;;;;5018007;28;20223;-80
2022/07/15 08:10:02;;;;;;;0.10;0.10;;;17.00;99.90;;;;;;5027878;28;20454;-80
2022/07/15 08:12:28;;;;;;;0.10;0.10;;;17.00;99.90;;;;;;5005715;28;20521;-80
2022/07/15 08:14:54;;;;;;;0.10;0.10;;;17.30;99.90;;;;;;5018222;28;20526;-82
2022/07/15 08:17:21;;;;;;;0.10;0.10;;;17.50;99.90;;;;;;5025491;28;20176;-81
2022/07/15 08:19:46;;;;;;;0.10;0.10;;;17.50;99.90;;;;;;5021386;28;20456;-80
2022/07/15 08:22:12;;;;;;;0.10;0.10;;;17.50;99.90;;;;;;5027790;28;20438;-80
2022/07/15 08:24:37;;;;;;;0.10;0.10;;;16.90;99.90;;;;;;5009727;28;20195;-81
2022/07/15 08:27:03;;;;;;;0.10;0.10;;;16.60;99.90;;;;;;5030348;28;20211;-79
2022/07/15 08:29:29;;;;;;;0.10;0.10;;;16.30;99.90;;;;;;5032970;28;20575;-80
2022/07/15 08:31:54;;;;;;;0.10;0.10;;;16.30;99.90;;;;;;5016169;28;20216;-81
2022/07/15 08:34:20;;;;;;;0.10;0.10;;;16.50;99.90;;;;;;5012634;28;20196;-80
2022/07/15 08:36:45;;;;;;;0.10;0.10;;;16.60;99.90;;;;;;5011336;28;20219;-81
2022/07/15 08:39:12;;;;;;;0.10;0.10;;;17.00;99.90;;;;;;5028215;28;20195;-82
2022/07/15 08:41:38;;;;;;;0.10;0.10;;;17.30;99.90;;;;;;5015677;28;20187;-81
2022/07/15 08:44:05;;;;;;;0.10;0.10;;;17.70;99.90;;;;;;5030811;28;20549;-81
2022/07/15 08:46:32;;;;;;;0.10;0.10;;;18.10;99.90;;;;;;5032643;28;20426;-82
2022/07/15 08:49:02;;;;;;;0.10;0.10;;;18.60;99.90;;;;;;5030791;28;20866;-82
2022/07/15 08:51:30;;;;;;;0.10;0.10;;;18.40;99.90;;;;;;5026586;28;20447;-81
2022/07/15 08:53:55;;;;;;;0.10;0.10;;;18.60;99.90;;;;;;5018332;28;20449;-81
2022/07/15 08:56:22;;;;;;;0.10;0.10;;;18.60;99.90;;;;;;5028644;28;20923;-82
2022/07/15 08:58:48;;;;;;;0.10;0.10;;;19.40;99.90;;;;;;4993586;28;20173;-81
2022/07/15 09:01:13;;;;;;;0.10;0.00;;;19.40;99.90;;;;;;4997151;28;20462;-81
2022/07/15 09:03:39;;;;;;;0.10;0.10;;;19.40;99.90;;;;;;5001497;28;20297;-80
2022/07/15 09:06:05;;;;;;;0.10;0.10;;;19.20;99.90;;;;;;5010245;28;20575;-80
2022/07/15 09:08:31;;;;;;;0.10;0.00;;;18.70;99.90;;;;;;5003651;28;20302;-81
2022/07/15 09:11:00;;;;;;;0.10;0.10;;;19.10;99.90;;;;;;5012325;28;20188;-80
2022/07/15 09:13:34;;;;;;;0.10;0.00;;;19.30;99.90;;;;;;5003448;28;20487;-80
2022/07/15 09:16:08;;;;;;;0.10;0.10;;;19.30;99.90;;;;;;5010716;28;20482;-79
2022/07/15 09:18:44;;;;;;;0.10;0.00;;;19.20;99.90;;;;;;5006401;28;20817;-81
2022/07/15 09:21:18;;;;;;;0.10;0.00;;;19.80;99.90;;;;;;5027058;28;20444;-80
2022/07/15 09:23:44;;;;;;;0.10;0.00;;;19.70;99.90;;;;;;5007688;28;20844;-80
2022/07/15 09:26:25;;;;;;;0.10;0.00;;;19.20;99.90;;;;;;5007799;28;20783;-79
2022/07/15 09:28:50;;;;;;;0.10;0.10;;;19.00;99.90;;;;;;5004990;28;20483;-80
2022/07/15 09:34:21;;;;;;;0.10;0.10;;;18.00;99.90;;;;;;5003341;28;20207;-81
2022/07/15 09:36:52;;;;;;;0.10;0.10;;;17.90;99.90;;;;;;4991056;28;20446;-80
2022/07/15 09:39:19;;;;;;;0.10;0.10;;;18.00;99.90;;;;;;4985152;28;20508;-81
2022/07/15 09:41:46;;;;;;;0.10;0.10;;;18.00;99.90;;;;;;5005454;28;20439;-79
2022/07/15 09:44:22;;;;;;;0.10;0.10;;;18.20;99.90;;;;;;5001005;28;20499;-79
2022/07/15 09:46:59;;;;;;;0.10;0.00;;;18.40;99.90;;;;;;4987888;28;20447;-80
2022/07/15 09:49:24;;;;;;;0.10;0.10;;;18.70;99.90;;;;;;5010817;28;20919;-80
2022/07/15 09:51:59;;;;;;;0.10;0.10;;;18.80;99.90;;;;;;5007692;28;20740;-79
2022/07/15 09:54:26;;;;;;;0.10;0.07;;;19.20;99.90;;;;;;4999837;28;20240;-80
2022/07/15 09:56:52;;;;;;;0.10;0.10;;;19.60;99.90;;;;;;4994584;28;20503;-80
2022/07/15 09:59:19;;;;;;;0.10;0.00;;;19.80;99.90;;;;;;5002666;28;20626;-81
2022/07/15 10:01:47;;;;;;;0.10;0.10;;;19.60;99.90;;;;;;5028013;28;20499;-80
2022/07/15 10:04:18;;;;;;;0.10;0.00;;;19.10;99.90;;;;;;5027348;28;20438;-81
2022/07/15 10:06:46;;;;;;;0.10;0.10;;;18.70;99.90;;;;;;4996406;28;20451;-81
2022/07/15 10:09:12;;;;;;;0.10;0.00;;;18.50;99.90;;;;;;5001282;28;20463;-81
2022/07/15 10:11:43;;;;;;;0.10;0.10;;;18.30;99.90;;;;;;5022792;28;20442;-80
2022/07/15 10:14:40;;;;;;;0.10;0.10;;;18.20;99.90;;;;;;5022112;28;20195;-80
2022/07/15 10:17:24;;;;;;;0.10;0.10;;;18.10;99.90;;;;;;5018041;28;20461;-81
2022/07/15 10:20:37;;;;;;;0.10;0.10;;;18.00;99.90;;;;;;5024121;28;20533;-84
2022/07/15 10:23:40;;;;;;;0.10;0.10;;;18.30;99.90;;;;;;4978335;28;20457;-82
2022/07/15 10:26:37;;;;;;;0.10;0.10;;;19.00;99.90;;;;;;5028456;28;20854;-84
2022/07/15 10:29:06;;;;;;;0.10;0.00;;;20.60;99.90;;;;;;5025440;28;20472;-84
2022/07/15 10:31:33;;;;;;;0.10;0.10;;;20.10;99.90;;;;;;5002700;28;20443;-83
2022/07/15 10:34:02;;;;;;;0.10;0.10;;;19.10;99.90;;;;;;5022397;28;20457;-84
2022/07/15 10:36:39;;;;;;;0.10;0.10;;;18.40;99.90;;;;;;5003575;28;20525;-82
2022/07/15 10:39:05;;;;;;;0.10;0.10;;;18.20;99.90;;;;;;5027109;28;20457;-83
2022/07/15 10:42:00;;;;;;;0.10;0.00;;;17.70;99.90;;;;;;5027977;28;20442;-82
2022/07/15 10:44:31;;;;;;;0.10;0.00;;;17.70;99.90;;;;;;5026042;28;20198;-82
2022/07/15 10:47:12;;;;;;;0.10;0.10;;;17.90;99.90;;;;;;5004800;28;20493;-82
2022/07/15 10:49:38;;;;;;;0.10;0.10;;;18.60;99.90;;;;;;5006842;28;20453;-82
2022/07/15 10:52:15;;;;;;;0.10;0.00;;;19.30;99.90;;;;;;5030085;28;20417;-82
2022/07/15 10:54:59;;;;;;;0.10;0.10;;;20.00;99.90;;;;;;5029697;28;20525;-82
2022/07/15 10:57:47;;;;;;;0.10;0.00;;;21.20;99.90;;;;;;5028195;28;20486;-82
2022/07/15 11:00:15;;;;;;;0.10;0.00;;;21.40;99.90;;;;;;5021619;28;20446;-84
2022/07/15 11:03:00;;;;;;;0.10;0.00;;;21.60;99.90;;;;;;5010750;28;20504;-84
2022/07/15 11:05:26;;;;;;;0.10;0.00;;;21.80;99.90;;;;;;5005390;28;20434;-85
2022/07/15 11:07:52;;;;;;;0.10;0.00;;;21.40;99.90;;;;;;5027441;28;20855;-83
2022/07/15 11:10:20;;;;;;;0.10;0.00;;;20.80;99.90;;;;;;5009952;28;20189;-84
2022/07/15 11:12:48;;;;;;;0.10;0.00;;;20.20;99.90;;;;;;5028811;28;20597;-82
2022/07/15 11:15:19;;;;;;;0.10;0.00;;;19.60;99.90;;;;;;5026855;28;20450;-82
2022/07/15 11:17:47;;;;;;;0.10;0.10;;;19.50;99.90;;;;;;5028384;28;20466;-82
2022/07/15 11:20:14;;;;;;;0.10;0.10;;;19.20;99.90;;;;;;5010479;28;20452;-82
2022/07/15 11:22:42;;;;;;;0.10;0.00;;;18.90;99.90;;;;;;5023264;28;20426;-82
2022/07/15 11:25:21;;;;;;;0.10;0.10;;;19.00;99.90;;;;;;5008656;28;20616;-82
2022/07/15 11:28:08;;;;;;;0.10;0.10;;;18.50;99.90;;;;;;5028843;28;20490;-84
2022/07/15 11:30:48;;;;;;;0.10;0.10;;;18.00;99.90;;;;;;5026361;28;20438;-82
2022/07/15 11:33:16;;;;;;;0.10;0.10;;;17.90;99.90;;;;;;5025204;28;20461;-81
2022/07/15 11:35:50;;;;;;;0.10;0.00;;;18.00;99.90;;;;;;5007334;28;20446;-82
2022/07/15 11:38:17;;;;;;;0.10;0.10;;;18.20;99.90;;;;;;5015434;28;20496;-82
2022/07/15 11:46:24;;;;;;;0.10;0.00;;;20.30;99.90;;;;;;5030009;28;20453;-83
2022/07/15 11:48:51;;;;;;;0.10;0.00;;;21.30;99.90;;;;;;5020329;28;20505;-82
2022/07/15 11:51:24;;;;;;;0.10;0.00;;;20.80;99.90;;;;;;5023526;28;21015;-83
2022/07/15 11:53:49;;;;;;;0.10;0.00;;;20.40;99.90;;;;;;5020104;28;20802;-81
2022/07/15 11:56:16;;;;;;;0.10;0.00;;;20.30;99.90;;;;;;5019146;28;20442;-85
2022/07/15 11:58:45;;;;;;;0.10;0.00;;;19.60;99.90;;;;;;5006346;28;20192;-82
2022/07/15 12:01:11;;;;;;;0.10;0.00;;;19.50;99.90;;;;;;5024951;28;20477;-82
2022/07/15 12:03:39;;;;;;;0.10;0.00;;;19.10;99.90;;;;;;5009273;28;21026;-81
2022/07/15 12:06:08;;;;;;;0.10;0.00;;;18.90;99.90;;;;;;5030824;28;20445;-82
2022/07/15 12:08:52;;;;;;;0.10;0.00;;;18.80;99.90;;;;;;5026355;28;20473;-81
2022/07/15 12:11:19;;;;;;;0.10;0.00;;;18.80;99.90;;;;;;5026904;28;20434;-82
2022/07/15 12:14:07;;;;;;;0.10;0.10;;;19.20;99.90;;;;;;5028054;28;20441;-82
2022/07/15 12:16:34;;;;;;;0.10;0.00;;;18.60;99.90;;;;;;5014538;28;21613;-81
2022/07/15 12:19:21;;;;;;;0.10;0.10;;;18.50;99.90;;;;;;5027795;28;20446;-81
2022/07/15 12:21:49;;;;;;;0.10;0.00;;;18.90;99.90;;;;;;5007388;28;20465;-81
2022/07/15 12:24:17;;;;;;;0.10;0.00;;;19.60;99.90;;;;;;5030293;28;20488;-83
2022/07/15 12:26:57;;;;;;;0.10;0.07;;;20.10;99.90;;;;;;5024120;28;20472;-83
2022/07/15 12:29:29;;;;;;;0.10;0.00;;;19.80;99.90;;;;;;5022743;28;20450;-83
2022/07/15 12:32:06;;;;;;;0.10;0.00;;;19.50;99.90;;;;;;5011243;28;20525;-82
2022/07/15 12:34:47;;;;;;;0.10;0.00;;;19.50;99.90;;;;;;5024659;28;20865;-81
2022/07/15 12:37:16;;;;;;;0.10;0.00;;;19.40;99.90;;;;;;5022607;28;20438;-81
2022/07/15 12:39:55;;;;;;;0.10;0.10;;;19.10;99.90;;;;;;5022092;28;20481;-81
2022/07/15 12:42:21;;;;;;;0.10;0.10;;;19.00;99.90;;;;;;5028803;28;20459;-81
2022/07/15 12:45:05;;;;;;;0.10;0.10;;;18.80;99.90;;;;;;5030779;28;20438;-82
2022/07/15 12:47:31;;;;;;;0.10;0.00;;;18.90;99.90;;;;;;5030937;28;20586;-81
2022/07/15 12:49:59;;;;;;;0.10;0.00;;;20.10;99.90;;;;;;5026712;28;20442;-80
2022/07/15 12:52:39;;;;;;;0.10;0.00;;;21.20;99.90;;;;;;5016561;28;20264;-82
2022/07/15 12:55:21;;;;;;;0.10;0.00;;;21.30;99.90;;;;;;5020088;28;20438;-82
2022/07/15 12:57:47;;;;;;;0.10;0.00;;;21.80;99.90;;;;;;5019191;28;20469;-82
2022/07/15 13:00:21;;;;;;;0.10;0.00;;;21.70;99.90;;;;;;5031243;28;20910;-80
2022/07/15 13:02:59;;;;;;;0.10;0.00;;;21.90;99.90;;;;;;5026192;28;20472;-81
2022/07/15 13:05:27;;;;;;;0.10;0.00;;;22.30;99.90;;;;;;5028789;28;20434;-82
2022/07/15 13:07:52;;;;;;;0.10;0.00;;;22.60;99.90;;;;;;5013016;28;20482;-81